الصفحة الرئيسية
METAR-TAF:

METAR-TAF

مطار :

مطار غوا الدولي

Panaji, الهند

دائرة عرض: 15-22-51N, خط طول: 073-49-53E, ارتفاع: 56 متر

مراقبة الطقس الحالي

تاريخ ووقت الإصدار 15 دقيقة قبل الساعة 21:00UTC
ريح 10 عقدة من الجنوب/الجنوب الغربي
درجة الحرارة 28°درجة مئوية
الرطوبة 84%
ضغط 1005 hPa
الرؤية: 6000 متر
غيوم قليلة على ارتفاع 1200 قدم
غيوم متفرقة على ارتفاع 1600 قدم
ملبد بالغيوم على ارتفاع 8000 قدم

METAR: VOGO 032100Z 21010KT 6000 FEW012 SCT016 OVC080 28/25 Q1005 NOSIG

زمن: 02:45 (21:15 UTC)

توقعات

تاريخ ووقت الإصدار 3ساعات و 15 دقيقة قبل الساعة 18:00UTC
التوقعات صالحة من03 الساعة 21 UTC إلى 04 الساعة 03 UTC
ريح 12 عقدة من الجنوب الغربي
الرؤية: 5000 متر
غيوم قليلة على ارتفاع 1000 قدم
غيوم متفرقة على ارتفاع 1400 قدم
غيوم مفككة على ارتفاع 9000 قدم
مؤقت
من 03 الساعة 22 UTC إلى 04 الساعة 03 UTC
ريح 10 عقدة من الجنوب الغربي تتزايد حتى 20 عقدة
الرؤية: 2000 متر
غيوم قليلة على ارتفاع 2500 قدم, مزنة ركامية.

TAF: VOGO 031800Z 0321/0403 23012KT 5000 BR/DZ FEW010 SCT014 BKN090 TEMPO 0322/0403 22010G20KT 2000 TSRA/RA FEW025CB

أرصاد الطقس والتوقعات من أكثر من 4000 مطار (تقارير الطقس للمطار METAR والتنبؤ بالطقس بالمطارTAF).

المحطات المتاحة هي النقط الصفراء والحمراء على الخريطة.

حرك المؤشر فوق النقطة لمعرفة اسم المحطة.

ثم انقر لمعرفة أرصاد وتوقعات الطقس.

لتغيير الخارطة: اضغط على الأزرار الخضراء مع رمز الصليب الأسود للتكبير. على الزر الأخضر مع شرطة للتصغير، أو على الأسهم الخضراء للخرائط المجاورة.


METAR-TAF: